Choose a state:
Most recent flow and stage for Iowa
(Stations highlighted in red are currently above flood stage)
USGS
station
ID
USGS station name NWS
flood
stage
(ft)
Most recent
stage
(ft)
Most recent
flow
(cfs)
Historical
peaks
(cfs)
Most recent
local
date/time
NWS
station
ID
05387320 Upper Iowa River at Lime Springs, IA 11 5.11

 

  2017-04-29 11:00:00 LSPI4
05387405 Upper Iowa River at Kendallville, IA 11 4.90

 

  2017-04-29 11:00:00 KDVI4
05387440 Upper Iowa River at Bluffton, IA 14 4.56 623 16,600 2017-04-29 11:45:00 BLFI4
05387490 Dry Run Creek near Decorah, IA 19 14.68

 

6,290 2017-04-29 11:45:00 DRCI4
05387500 Upper Iowa River at Decorah, IA 12 3.16 813 34,100 2017-04-29 11:45:00 DEHI4
05388250 Upper Iowa River near Dorchester, IA 14 9.00 1,620 38,000 2017-04-29 11:00:00 DCHI4
05388310 Waterloo Creek near Dorchester, IA 10 7.31

 

9,720 2017-04-29 11:00:00 DWCI4
05389000 Yellow River near Ion, IA   6.29 493 21,200 2017-04-29 11:45:00  
05389400 Bloody Run Creek near Marquette, IA   4.20 45 4,620 2017-04-29 11:00:00  
05389500 Mississippi River at McGregor, IA 16 14.45 24,000 276,000 2017-04-29 11:15:00 MCGI4
05411500 Mississippi River at Clayton, IA   16.78

 

  2017-04-29 11:45:00  
05411600 Turkey River at Spillville, IA 9 3.63 327 15,300 2017-04-29 11:30:00 SPLI4
05411850 Turkey River near Eldorado, IA 13 7.09 980 50,100 2017-04-29 11:45:00 EDRI4
05411900 Otter Creek at Elgin, IA   3.15 77   2017-04-29 11:00:00  
05412020 Turkey River above French Hollow Cr at Elkader, IA 12 7.82 1,700 40,500 2017-04-29 11:45:00 EKDI4
05412400 Volga River at Littleport, IA 12 5.40 548 30,000 2017-04-29 11:45:00 VLPI4
05412500 Turkey River at Garber, IA 17 9.48 2,890 66,700 2017-04-29 11:15:00 GRBI4
05414400 Middle Fk Little Maquoketa R nr Rickardsville, IA   9.91

 

23,000 2017-04-29 11:30:00  
05416900 Maquoketa River at Manchester, IA 14 5.25 414 26,600 2017-04-29 11:15:00 MCHI4
05418400 North Fork Maquoketa River near Fulton, IA 12 3.83 394 25,000 2017-04-29 11:00:00 FLNI4
05418500 Maquoketa River near Maquoketa, IA 24 12.78 1,810 48,000 2017-04-29 11:15:00 MAQI4
05418720 Maquoketa River near Green Island, IA   9.64 Bkw 29,900 2017-04-29 11:00:00  
05420400 Mississippi River at Lock and Dam 13 nr Fulton, IL 16 13.45

 

  2017-04-29 11:30:00 FLTI2
05420460 Beaver Slough at 3rd Street at Clinton, IA   18.32

 

62,100 2017-04-29 11:15:00  
05420500 Mississippi River at Clinton, IA 17 15.53 125,000 307,000 2017-04-29 11:30:00 CMMI4
05420680 Wapsipinicon River near Tripoli, IA 15 10.03 442 19,400 2017-04-29 11:45:00 TPLI4
05420850 Little Wapsipinicon River near Oran, IA   82.26

 

12,800 2017-04-29 11:15:00  
05421000 Wapsipinicon River at Independence, IA 12 6.25 1,620 31,100 2017-04-29 11:30:00 IDPI4
05421740 Wapsipinicon River near Anamosa, IA 14.5 8.84 3,040 31,800 2017-04-29 11:15:00 ANSI4
05421760 Wapsipinicon River at Oxford Mills, IA   7.27 3,880 23,200 2017-04-29 11:30:00 OXJI4
05421890 Silver Creek at Welton, IA   81.76

 

4,820 2017-04-29 11:00:00  
05422000 Wapsipinicon River near De Witt, IA 11 10.55 5,500 40,900 2017-04-29 11:30:00 DEWI4
05422470 Crow Creek at Bettendorf, IA   3.80 5.2 7,700 2017-04-29 11:00:00  
05422600 Duck Creek at DC Golf Course at Davenport, IA 12 4.00 47 7,570 2017-04-29 11:45:00 DKII4
05448400 West Main Drainage Ditch 1 and 2 near Britt, IA   76.51

 

450 2017-04-29 11:15:00 BTDI4
05449500 Iowa River near Rowan, IA 12.5 6.39 541 8,460 2017-04-29 11:00:00 ROWI4
05451080 South Fork Iowa River near Blairsburg, IA   4.46 3.9 762 2017-04-29 11:00:00 BLII4
05451210 South Fork Iowa River NE of New Providence, IA   3.79 231 7,390 2017-04-29 11:45:00 NPVI4
05451500 Iowa River at Marshalltown, IA 19 12.15 2,000 42,000 2017-04-29 11:00:00 MIWI4
05451700 Timber Creek near Marshalltown, IA   3.36 103 12,000 2017-04-29 11:00:00 MTWI4
05451770 Iowa River at County Highway E49 near Tama, IA 12.5 6.44 2,620 26,700 2017-04-29 11:00:00 TMAI4
05451900 Richland Creek near Haven, IA   11.14 61 12,200 2017-04-29 11:00:00 HAVI4
05451955 Stein Creek near Clutier, IA   67.34

 

12,200 2017-04-29 11:30:00  
05452000 Salt Creek near Elberon, IA   7.66 252 36,600 2017-04-29 11:00:00 EBRI4
05452200 Walnut Creek near Hartwick, IA   2.65 56 8,580 2017-04-29 11:00:00 HRTI4
05452500 Iowa River near Belle Plaine, IA 15 10.86 3,200 43,000 2017-04-29 11:00:00 BPLI4
05453000 Big Bear Creek at Ladora, IA 20 11.89 147 11,200 2017-04-29 11:00:00 LADI4
05453100 Iowa River at Marengo, IA 14 10.97 3,560 51,000 2017-04-29 11:00:00 MROI4
05453200 Price Creek at Amana, IA   80.51

 

5,080 2017-04-29 11:15:00  
05453520 Iowa River below Coralville Dam nr Coralville, IA   52.42 4,330 39,900 2017-04-29 11:00:00  
05454000 Rapid Creek near Iowa City, IA 9 4.29 23 6,700 2017-04-29 11:00:00 IRCI4
05454090 Muddy Creek at Coralville, IA   2.61 10 2,920 2017-04-29 11:00:00 CMCI4
05454220 Clear Creek near Oxford, IA 10 3.09 52 6,000 2017-04-29 11:45:00 OXFI4
05454300 Clear Creek near Coralville, IA 11 2.44 101 10,200 2017-04-29 11:00:00 CRAI4
05454500 Iowa River at Iowa City, IA 22 14.43 4,750 70,000 2017-04-29 11:00:00 IOWI4
05455010 South Branch Ralston Creek at Iowa City, IA 7 2.01

 

1,070 2017-04-29 11:45:00 IACI4
05455100 Old Mans Creek near Iowa City, IA 12 3.28 140 14,600 2017-04-29 11:00:00 IOCI4
05455230 Deep River at Deep River, IA   67.18

 

6,200 2017-04-29 11:15:00  
05455500 English River at Kalona, IA 14 5.53 428 36,100 2017-04-29 11:00:00 KALI4
05455700 Iowa River near Lone Tree, IA 15 9.53 6,220 57,100 2017-04-29 11:00:00 LNTI4
05457440 Deer Creek near Carpenter, IA   79.11

 

11,800 2017-04-29 11:45:00  
05457505 Cedar River at Osage, IA 22 15.92 1,100 18,200 2017-04-29 11:45:00 OSGI4
05457700 Cedar River at Charles City, IA 12 4.12 1,650 34,600 2017-04-29 11:30:00 CCYI4
05458000 Little Cedar River near Ionia, IA 10 4.79 401 24,700 2017-04-29 11:45:00 IONI4
05458300 Cedar River at Waverly, IA 12 5.10 2,660 52,600 2017-04-29 11:15:00 WVLI4
05458500 Cedar River at Janesville, IA 13 3.46 2,570 53,400 2017-04-29 11:45:00 JANI4
05458900 West Fork Cedar River at Finchford, IA 17 8.93 1,250 31,900 2017-04-29 11:45:00 FNHI4
05459490 Spring Creek near Mason City, IA   81.34

 

5,340 2017-04-29 11:45:00  
05459500 Winnebago River at Mason City, IA 10 4.76 766 13,100 2017-04-29 11:30:00 MCWI4
05460000 Clear Lake at Clear Lake, IA   4.99

 

  2017-04-29 11:00:00 CLKI4
05460400 Shell Rock River near Rockford, IA   11.25 1,940 17,700 2017-04-29 11:45:00 RKFI4
05462000 Shell Rock River at Shell Rock, IA 13.5 9.72 2,770 60,400 2017-04-29 11:45:00 SHRI4
05463000 Beaver Creek at New Hartford, IA 12.5 4.07 352 25,900 2017-04-29 11:00:00 NHRI4
05463050 Cedar River at Cedar Falls, IA 88 83.50 7,650 83,900 2017-04-29 11:45:00 CEDI4
05463500 Black Hawk Creek at Hudson, IA 14 6.94 388 22,500 2017-04-29 11:45:00 HUDI4
05464000 Cedar River at Waterloo, IA 13 7.84 8,320 112,000 2017-04-29 11:00:00 ALOI4
05464220 Wolf Creek near Dysart, IA   3.36 319 15,700 2017-04-29 11:15:00 DYSI4
05464315 Cedar River at Vinton, IA 15 7.59 9,290 88,000 2017-04-29 11:15:00 VINI4
05464420 Cedar River at Blairs Ferry Road at Palo, IA   7.81 10,800 88,500 2017-04-29 11:15:00 PLOI4
05464500 Cedar River at Cedar Rapids, IA 12 6.62 11,700 140,000 2017-04-29 11:00:00 CIDI4
05464730 Cedar River below Indian Creek at Cedar Rapids, IA   7.53 12,200   2017-04-29 11:30:00  
05464780 Cedar River at Cedar Bluff, IA   9.71 12,500 81,200 2017-04-29 11:00:00  
0546494140 WB Wapsinonoc Cr abv Baker Ave at West Branch, IA   4.96

 

  2017-04-29 11:00:00  
0546494150 Unnamed Trb to WB Wapsinonoc Cr at West Branch, IA   3.70

 

  2017-04-29 11:00:00  
0546494170 WB Wapsinonoc Cr at College St at West Branch, IA   2.98 8.4 233 2017-04-29 11:00:00  
05464942 Hoover Cr at Hoover Nat Hist Site, West Branch, IA   1.59 2.9 1,650 2017-04-29 11:45:00  
05465000 Cedar River near Conesville, IA 13 11.21 14,600 127,000 2017-04-29 11:00:00 CNEI4
05465500 Iowa River at Wapello, IA 20 18.03 20,800 188,000 2017-04-29 11:00:00 WAPI4
05465700 Iowa River at Oakville, IA 10 7.88 21,600 188,000 2017-04-29 11:00:00 OKVI4
05469860 Mud Lake Drainage Ditch 71 at Jewell, IA   81.29

 

3,700 2017-04-29 11:15:00  
05469990 Keigley Branch near Story City, IA   83.13

 

3,440 2017-04-29 11:30:00  
05470000 South Skunk River near Ames, IA 12.5 4.06 358 14,800 2017-04-29 11:00:00 AMEI4
05470500 Squaw Creek at Ames, IA 10 2.20 224 24,300 2017-04-29 11:00:00 AMWI4
05471000 South Skunk River below Squaw Creek near Ames, IA 21.5 11.81 533 36,200 2017-04-29 11:00:00 AESI4
05471050 South Skunk River at Colfax, IA 18 9.09 732 24,000 2017-04-29 11:45:00 CFXI4
05471200 Indian Creek near Mingo, IA   4.64 258 23,500 2017-04-29 11:15:00 MGOI4
05471500 South Skunk River near Oskaloosa, IA 24.5 10.78 1,570 37,000 2017-04-29 11:30:00 OOAI4
05472390 Middle Creek near Lacey, IA   76.23

 

9,650 2017-04-29 11:00:00  
05472500 North Skunk River near Sigourney, IA 16 6.34 442 27,500 2017-04-29 11:30:00 SIGI4
05473065 Skunk River at Merrimac, IA   5.22 2,560 44,700 2017-04-29 11:15:00 MERI4
05473400 Cedar Creek near Oakland Mills, IA   4.23 179 20,000 2017-04-29 11:30:00 OKMI4
05473450 Big Creek North of Mount Pleasant, IA   3.72 35 9,580 2017-04-29 11:45:00 MBCI4
05474000 Skunk River at Augusta, IA 15 4.45 3,690 66,800 2017-04-29 11:30:00 AGSI4
05476500 Des Moines River at Estherville, IA 8 4.40

 

16,000 2017-04-29 11:00:00 ESVI4
05476590 Des Moines River at Emmetsburg, IA 11 3.95 1,420 7,230 2017-04-29 11:15:00 EMTI4
05476735 Pilot Creek at County Hwy P15 near Rolfe, IA   2.81

 

  2017-04-29 11:15:00 RLFI4
05476750 Des Moines River at Humboldt, IA 10 6.27 1,960 19,000 2017-04-29 11:15:00 HBTI4
05478265 East Fork Des Moines River near Algona, IA 17 10.16 842 11,000 2017-04-29 11:15:00 AGNI4
05479000 East Fork Des Moines River at Dakota City, IA 20 10.19 1,280 22,000 2017-04-29 11:00:00 DAKI4
05480080 Lizard Creek near Fort Dodge, IA   6.11

 

  2017-04-29 11:15:00 FLZI4
05480500 Des Moines River at Fort Dodge, IA 10.5 5.88 3,740 36,800 2017-04-29 11:00:00 FODI4
05480820 Boone River near Goldfield, IA   10.08 425 7,930 2017-04-29 11:15:00 GLDI4
05480930 White Fox Creek at Clarion, IA   84.68

 

3,290 2017-04-29 11:45:00  
05481000 Boone River near Webster City, IA 14 3.89 1,010 21,500 2017-04-29 11:00:00 WBCI4
05481300 Des Moines River near Stratford, IA 21 9.63 5,460 58,300 2017-04-29 11:00:00 STRI4
05481510 Bluff Creek at Pilot Mound, IA   80.21

 

1,290 2017-04-29 11:15:00  
05481650 Des Moines River near Saylorville, IA   8.88 5,940 60,000 2017-04-29 11:00:00 SDTI4
05481950 Beaver Creek near Grimes, IA 14 4.87 350 14,300 2017-04-29 11:15:00 GRMI4
05482000 Des Moines River at 2nd Avenue at Des Moines, IA 23 15.84 6,700 60,200 2017-04-29 11:15:00 DMOI4
05482300 North Raccoon River near Sac City, IA 13 8.56 590 13,100 2017-04-29 11:15:00 SCRI4
05482315 Black Hawk Lake at Lake View, IA   7.82

 

  2017-04-29 11:15:00 BHLI4
05482430 North Raccoon River near Lanesboro, IA 15 10.56

 

  2017-04-29 11:15:00 LKCI4
05482500 North Raccoon River near Jefferson, IA 19 7.16 1,720 29,100 2017-04-29 11:15:00 EFWI4
05483318 Brushy Fork Creek near Templeton, IA   67.67

 

19,000 2017-04-29 11:00:00  
05483349 Middle Raccoon River Tributary at Carroll, IA   15.35

 

4,600 2017-04-29 11:15:00  
05483450 Middle Raccoon River near Bayard, IA   11.13 369 27,500 2017-04-29 11:15:00 BAYI4
05483470 Lake Panorama at Panora, IA   45.47

 

  2017-04-29 11:15:00 PNLI4
05483600 Middle Raccoon River at Panora, IA   5.04 351 22,400 2017-04-29 11:15:00 PANI4
05484000 South Raccoon River at Redfield, IA 20 4.08 1,010 44,000 2017-04-29 11:45:00 REDI4
05484500 Raccoon River at Van Meter, IA 17 6.28 3,750 70,100 2017-04-29 11:00:00 VNMI4
05484600 Raccoon River near West Des Moines, IA   30.77

 

2017-04-29 11:45:00 WDMI4
05484650 Raccoon River at 63rd Street at Des Moines, IA 36 25.57 4,300 66,000 2017-04-29 11:15:00 DMWI4
05484800 Walnut Creek at Des Moines, IA 14 3.75 63 12,500 2017-04-29 11:45:00 DOSI4
05484900 Raccoon River at Fleur Drive at Des Moines, IA 12 4.58 3,590 67,900 2017-04-29 11:45:00 DEMI4
05485500 Des Moines River blw Raccoon Riv at Des Moines, IA 24 16.45 10,800 116,000 2017-04-29 11:00:00 DESI4
05485605 Fourmile Creek near Ankeny, IA DS1   1.57 27 4,730 2017-04-29 11:15:00 ANKI4
05485640 Fourmile Creek at Des Moines, IA 12.5 4.18 63 9,620 2017-04-29 11:30:00 DFMI4
05486000 North River near Norwalk, IA 22 7.96 260 32,000 2017-04-29 11:15:00 NRWI4
05486490 Middle River near Indianola, IA 23 7.95 272 34,000 2017-04-29 11:15:00 IDNI4
05487470 South River near Ackworth, IA 29 6.49 224 38,100 2017-04-29 11:15:00 AKWI4
05487520 Des Moines River near Swan, IA   47.94 14,100 55,900 2017-04-29 11:15:00 SWNI4
05487980 White Breast Creek near Dallas, IA   7.84 363 37,300 2017-04-29 11:15:00 DLLI4
05488110 Des Moines River near Pella, IA   89.69 10,800 105,000 2017-04-29 11:15:00 RRDI4
05488200 English Creek near Knoxville, IA 21 10.34 101 28,000 2017-04-29 11:15:00 KECI4
05488500 Des Moines River near Tracy, IA 14 6.16 10,800 155,000 2017-04-29 11:15:00 TRCI4
05489000 Cedar Creek near Bussey, IA 25 6.70 343 96,000 2017-04-29 11:15:00 BSSI4
05489500 Des Moines River at Ottumwa, IA 11.5 5.35 12,300 140,000 2017-04-29 11:50:00 OTMI4
05490500 Des Moines River at Keosauqua, IA 22 14.11 13,400 146,000 2017-04-29 11:15:00 KEQI4
05494300 Fox River at Bloomfield, IA   2.47 5.1 13,100 2017-04-29 11:00:00 BMFI4
06483290 Rock River below Tom Creek at Rock Rapids, IA 13 8.67 507 33,800 2017-04-29 11:15:00 RAPI4
06483495 Burr Oak Creek near Perkins, IA   10.88

 

6,400 2017-04-29 11:15:00  
06483500 Rock River near Rock Valley, IA 16 6.15 973 60,600 2017-04-29 11:00:00 RKVI4
06485500 BIG SIOUX R AT AKRON,IA 16 9.62 2,800 108,000 2017-04-29 12:00:00 AKRI4
06485950 BIG SIOUX RIVER AT SIOUX CITY, IA 32 14.03 3,870 11,000 2017-04-29 11:30:00 SXCI4
06486000 Missouri River at Sioux City, IA 30 14.39 35,600 441,000 2017-04-29 11:00:00 SSCN1
06599900 Perry Creek near Millnerville, IA 8 1.43

 

4,690 2017-04-29 11:45:00 PCMI4
06599950 Perry Creek near Hinton, IA 28 16.30

 

6,410 2017-04-29 11:15:00 PCHI4
06600000 Perry Creek at 38th Street at Sioux City, IA 24 6.45

 

9,600 2017-04-29 11:00:00 SIOI4
06600030 Little Floyd River near Sanborn, IA   81.68

 

214 2017-04-29 11:15:00  
06600100 Floyd River at Alton, IA 12 6.55 238 45,500 2017-04-29 11:00:00 ALTI4
06600500 Floyd River at James, IA 26 10.70 649 71,500 2017-04-29 11:00:00 JMEI4
06601200 Missouri River at Decatur, NE 35 22.45 36,200 191,000 2017-04-29 11:00:00 DCTN1
06602020 West Fork Ditch at Hornick, IA 20 7.99 255 12,400 2017-04-29 11:00:00 HOKI4
06602190 Elliott Creek at Lawton, IA   72.72

 

3,150 2017-04-29 11:15:00  
06602400 Monona-Harrison Ditch near Turin, IA 23 6.36 459 21,000 2017-04-29 11:00:00 TRNI4
06604000 Spirit Lake near Orleans, IA 17 14.59

 

  2017-04-29 11:15:00 SLKI4
06604200 West Okoboji Lake at Lakeside Lab near Milford, IA 7.5 4.58

 

  2017-04-29 11:45:00 OBJI4
06604440 Little Sioux River at 300th St near Spencer, IA 10 6.23 387 6,020 2017-04-29 11:15:00 LSSI4
06605000 Ocheyedan River near Spencer, IA 8 3.81 352 26,000 2017-04-29 11:45:00 SPOI4
06605750 Willow Creek near Cornell, IA   82.30

 

4,200 2017-04-29 11:15:00  
06605850 Little Sioux River at Linn Grove, IA 18 16.89 1,440 22,500 2017-04-29 11:00:00 LNNI4
06606600 Little Sioux River at Correctionville, IA 19 8.61 2,170 29,800 2017-04-29 11:00:00 CRRI4
06607200 Maple River at Mapleton, IA 21 6.39 556 20,800 2017-04-29 11:00:00 MAPI4
06607500 Little Sioux River near Turin, IA 25 10.08 3,000 32,000 2017-04-29 11:00:00 TURI4
06608500 Soldier River at Pisgah, IA 28 3.89 276 34,700 2017-04-29 11:00:00 PSGI4
06609100 Missouri River at Blair, NE 26.5 17.30

 

  2017-04-29 11:00:00 BLAN1
06609500 Boyer River at Logan, IA 21 5.65 911 33,600 2017-04-29 11:00:00 LGNI4
06609560 Willow Creek near Soldier, IA 81.5 66.93

 

6,840 2017-04-29 11:00:00 WCSI4
06610000 Missouri River at Omaha, NE 29 17.24 40,800 396,000 2017-04-29 11:00:00 OMHN1
06610505 Missouri River near Council Bluffs, IA   15.98

 

  2009-09-30 23:30:00  
06610657 Little Pony Creek at Council Bluffs, IA   1.53

 

  2009-09-30 23:45:00  
06805600 Missouri River at Plattsmouth, NE 26 17.73

 

  2017-04-29 11:15:00 PTMN1
06807000 Missouri River at Nebraska City, NE 18 12.21 49,900 414,000 2017-04-29 11:00:00 NEBN1
06807410 West Nishnabotna River at Hancock, IA 14 3.74 703 30,100 2017-04-29 11:00:00 HNKI4
06808500 West Nishnabotna River at Randolph, IA 19 10.26 2,070 40,800 2017-04-29 11:00:00 RDPI4
06808820 West Nishnabotna River near Riverton, IA 21.5 12.55 2,020 23,500 2017-04-29 11:30:00 WNSI4
06809210 East Nishnabotna River near Atlantic, IA 19 3.76 421 41,400 2017-04-29 11:00:00 ATCI4
06809500 East Nishnabotna River at Red Oak, IA 18 7.54 989 60,500 2017-04-29 11:00:00 RDOI4
06810000 Nishnabotna River above Hamburg, IA 25 11.83 3,330 65,100 2017-04-29 11:00:00 HMBI4
06810030 Main Ditch Number Six at Levee Rd near Hamburg, IA   898.84

 

  2017-04-29 11:15:00  
06810070 Missouri River at Brownville, NE 33 28.00

 

  2017-04-29 11:15:00 BRON1
06811760 Tarkio River near Elliott, IA   2.58

 

5,000 2017-04-29 11:45:00  
06811800 East Tarkio Creek near Stanton, IA   0.75

 

4,790 2017-04-29 11:30:00  
06811875 Snake Creek near Yorktown, IA 92.5 80.83

 

3,080 2017-04-29 11:45:00 SKYI4
06813500 Missouri River at Rulo, NE 17 12.11 56,400 358,000 2017-04-29 11:30:00 RULN1
06816290 West Nodaway River at Massena, IA   43.23

 

4,850 2017-04-29 11:15:00  
06817000 Nodaway River at Clarinda, IA 23 11.48 506 47,900 2017-04-29 11:15:00 ICLI4
06819185 East Fork 102 River at Bedford, IA 24 11.31 53 10,300 2017-04-29 11:45:00 BDFI4
06898000 Thompson River at Davis City, IA 12 2.15 564 57,000 2017-04-29 11:00:00 DVSI4
06903400 Chariton River near Chariton, IA 19.5 9.63 363 37,700 2017-04-29 11:45:00 CHTI4
06903700 South Fork Chariton River near Promise City, IA 25 4.22 180 70,600 2017-04-29 11:45:00 PRMI4
06903880 Rathbun Lake near Rathbun, IA   905.31

 

  2017-04-29 11:45:00 RADI4
06903900 Chariton River near Rathbun, IA   3.73 224 21,800 2017-04-29 11:00:00 RABI4
06904010 Chariton River near Moulton, IA 36 20.29 278 21,200 2017-04-29 11:45:00 MOLI4